sensor_id;sensor_type;location;lat;lon;timestamp;pressure;altitude;pressure_sealevel;temperature;humidity
73422;BME280;61637;47.760;-122.022;2022-10-18T00:00:00;101930.339;;;18.6;unknown
73422;BME280;61637;47.760;-122.022;2022-10-18T00:02:00;101930.339;;;18.5;unknown
73422;BME280;61637;47.760;-122.022;2022-10-18T00:04:00;101930.339;;;18.5;unknown
73422;BME280;61637;47.760;-122.022;2022-10-18T00:06:00;101930.339;;;18.4;unknown
73422;BME280;61637;47.760;-122.022;2022-10-18T00:08:00;101930.339;;;18.4;unknown
73422;BME280;61637;47.760;-122.022;2022-10-18T00:10:00;101930.339;;;18.3;unknown
73422;BME280;61637;47.760;-122.022;2022-10-18T00:12:00;101930.339;;;18.3;unknown
73422;BME280;61637;47.760;-122.022;2022-10-18T00:14:00;101930.339;;;18.3;unknown
73422;BME280;61637;47.760;-122.022;2022-10-18T00:16:02;101930.339;;;18.2;unknown
73422;BME280;61637;47.760;-122.022;2022-10-18T00:18:00;101930.339;;;18.2;unknown
73422;BME280;61637;47.760;-122.022;2022-10-18T00:20:00;101930.339;;;18.2;unknown
73422;BME280;61637;47.760;-122.022;2022-10-18T00:22:00;101930.339;;;18.1;unknown
73422;BME280;61637;47.760;-122.022;2022-10-18T00:24:00;101930.339;;;18.1;unknown
73422;BME280;61637;47.760;-122.022;2022-10-18T00:26:01;101930.339;;;18.0;unknown
73422;BME280;61637;47.760;-122.022;2022-10-18T00:28:00;101930.339;;;18.0;unknown
73422;BME280;61637;47.760;-122.022;2022-10-18T00:30:00;101930.339;;;17.9;unknown
73422;BME280;61637;47.760;-122.022;2022-10-18T00:32:00;101930.339;;;17.8;unknown
73422;BME280;61637;47.760;-122.022;2022-10-18T00:34:02;101930.339;;;17.8;unknown
73422;BME280;61637;47.760;-122.022;2022-10-18T00:36:00;101930.339;;;17.7;unknown
73422;BME280;61637;47.760;-122.022;2022-10-18T00:38:00;101930.339;;;17.6;unknown
73422;BME280;61637;47.760;-122.022;2022-10-18T00:40:00;101930.339;;;17.6;unknown
73422;BME280;61637;47.760;-122.022;2022-10-18T00:42:00;101930.339;;;17.5;unknown
73422;BME280;61637;47.760;-122.022;2022-10-18T00:44:01;101930.339;;;17.4;unknown
73422;BME280;61637;47.760;-122.022;2022-10-18T00:46:00;101930.339;;;17.4;unknown
73422;BME280;61637;47.760;-122.022;2022-10-18T00:48:01;101930.339;;;17.3;unknown
73422;BME280;61637;47.760;-122.022;2022-10-18T00:50:01;101930.339;;;17.3;unknown
73422;BME280;61637;47.760;-122.022;2022-10-18T00:52:01;101930.339;;;17.2;unknown
73422;BME280;61637;47.760;-122.022;2022-10-18T00:54:00;101930.339;;;17.2;unknown
73422;BME280;61637;47.760;-122.022;2022-10-18T00:56:00;101930.339;;;17.1;unknown
73422;BME280;61637;47.760;-122.022;2022-10-18T00:58:00;101930.339;;;17.1;unknown
73422;BME280;61637;47.760;-122.022;2022-10-18T01:00:00;101930.339;;;16.9;unknown
73422;BME280;61637;47.760;-122.022;2022-10-18T01:02:00;101930.339;;;16.9;unknown
73422;BME280;61637;47.760;-122.022;2022-10-18T01:04:00;101930.339;;;16.8;unknown
73422;BME280;61637;47.760;-122.022;2022-10-18T01:06:00;101930.339;;;16.7;unknown
73422;BME280;61637;47.760;-122.022;2022-10-18T01:08:05;101930.339;;;16.6;unknown
73422;BME280;61637;47.760;-122.022;2022-10-18T01:10:04;101930.339;;;16.6;unknown
73422;BME280;61637;47.760;-122.022;2022-10-18T01:12:05;101930.339;;;16.4;unknown
73422;BME280;61637;47.760;-122.022;2022-10-18T01:14:04;101930.339;;;16.4;unknown
73422;BME280;61637;47.760;-122.022;2022-10-18T01:16:02;101930.339;;;16.3;unknown
73422;BME280;61637;47.760;-122.022;2022-10-18T01:18:02;101930.339;;;16.3;unknown
73422;BME280;61637;47.760;-122.022;2022-10-18T01:20:09;101930.339;;;16.2;unknown
73422;BME280;61637;47.760;-122.022;2022-10-18T01:22:01;101930.339;;;16.1;unknown
73422;BME280;61637;47.760;-122.022;2022-10-18T01:26:02;101930.339;;;15.9;unknown
73422;BME280;61637;47.760;-122.022;2022-10-18T01:28:03;101930.339;;;15.9;unknown
73422;BME280;61637;47.760;-122.022;2022-10-18T01:30:06;101930.339;;;15.8;unknown
73422;BME280;61637;47.760;-122.022;2022-10-18T01:32:01;101930.339;;;15.8;unknown
73422;BME280;61637;47.760;-122.022;2022-10-18T01:34:01;101930.339;;;15.7;unknown
73422;BME280;61637;47.760;-122.022;2022-10-18T01:36:02;101930.339;;;15.6;unknown
73422;BME280;61637;47.760;-122.022;2022-10-18T01:38:02;101930.339;;;15.6;unknown
73422;BME280;61637;47.760;-122.022;2022-10-18T01:40:01;101930.339;;;15.4;unknown
73422;BME280;61637;47.760;-122.022;2022-10-18T01:42:01;101930.339;;;15.4;unknown
73422;BME280;61637;47.760;-122.022;2022-10-18T01:44:01;101930.339;;;15.3;unknown
73422;BME280;61637;47.760;-122.022;2022-10-18T01:46:00;101930.339;;;15.3;unknown
73422;BME280;61637;47.760;-122.022;2022-10-18T01:48:00;101930.339;;;15.2;unknown
73422;BME280;61637;47.760;-122.022;2022-10-18T01:50:02;101930.339;;;15.1;unknown
73422;BME280;61637;47.760;-122.022;2022-10-18T01:52:00;101930.339;;;15.1;unknown
73422;BME280;61637;47.760;-122.022;2022-10-18T01:54:00;101930.339;;;15.0;unknown
73422;BME280;61637;47.760;-122.022;2022-10-18T01:56:06;101930.339;;;14.9;unknown
73422;BME280;61637;47.760;-122.022;2022-10-18T01:58:02;101930.339;;;14.9;unknown
73422;BME280;61637;47.760;-122.022;2022-10-18T02:00:02;101930.339;;;14.8;unknown
73422;BME280;61637;47.760;-122.022;2022-10-18T02:02:03;101930.339;;;14.8;unknown
73422;BME280;61637;47.760;-122.022;2022-10-18T02:04:03;101930.339;;;14.7;unknown
73422;BME280;61637;47.760;-122.022;2022-10-18T02:06:02;101930.339;;;14.7;unknown
73422;BME280;61637;47.760;-122.022;2022-10-18T02:08:03;101930.339;;;14.6;unknown
73422;BME280;61637;47.760;-122.022;2022-10-18T02:10:02;101930.339;;;14.6;unknown
73422;BME280;61637;47.760;-122.022;2022-10-18T02:12:00;101930.339;;;14.5;unknown
73422;BME280;61637;47.760;-122.022;2022-10-18T02:14:02;101930.339;;;14.4;unknown
73422;BME280;61637;47.760;-122.022;2022-10-18T02:16:02;101930.339;;;14.4;unknown
73422;BME280;61637;47.760;-122.022;2022-10-18T02:18:00;101930.339;;;14.3;unknown
73422;BME280;61637;47.760;-122.022;2022-10-18T02:20:00;101930.339;;;14.3;unknown
73422;BME280;61637;47.760;-122.022;2022-10-18T02:22:00;101930.339;;;14.2;unknown
73422;BME280;61637;47.760;-122.022;2022-10-18T02:24:00;101930.339;;;14.2;unknown
73422;BME280;61637;47.760;-122.022;2022-10-18T02:26:00;101930.339;;;14.2;unknown
73422;BME280;61637;47.760;-122.022;2022-10-18T02:28:00;101930.339;;;14.2;unknown
73422;BME280;61637;47.760;-122.022;2022-10-18T02:30:00;101930.339;;;14.1;unknown
73422;BME280;61637;47.760;-122.022;2022-10-18T02:32:02;101930.339;;;14.1;unknown
73422;BME280;61637;47.760;-122.022;2022-10-18T02:34:01;101930.339;;;14.1;unknown
73422;BME280;61637;47.760;-122.022;2022-10-18T02:36:01;101930.339;;;14.0;unknown
73422;BME280;61637;47.760;-122.022;2022-10-18T02:38:00;101930.339;;;13.9;unknown
73422;BME280;61637;47.760;-122.022;2022-10-18T02:40:01;101930.339;;;13.9;unknown
73422;BME280;61637;47.760;-122.022;2022-10-18T02:42:01;101930.339;;;13.9;unknown
73422;BME280;61637;47.760;-122.022;2022-10-18T02:44:00;101930.339;;;13.8;unknown
73422;BME280;61637;47.760;-122.022;2022-10-18T02:46:00;101930.339;;;13.8;unknown
73422;BME280;61637;47.760;-122.022;2022-10-18T02:48:00;101930.339;;;13.8;unknown
73422;BME280;61637;47.760;-122.022;2022-10-18T02:50:00;101930.339;;;13.7;unknown
73422;BME280;61637;47.760;-122.022;2022-10-18T02:52:00;101930.339;;;13.7;unknown
73422;BME280;61637;47.760;-122.022;2022-10-18T02:54:00;101930.339;;;13.7;unknown
73422;BME280;61637;47.760;-122.022;2022-10-18T02:56:00;101930.339;;;13.6;unknown
73422;BME280;61637;47.760;-122.022;2022-10-18T02:58:00;101930.339;;;13.6;unknown
73422;BME280;61637;47.760;-122.022;2022-10-18T03:00:00;101930.339;;;13.6;unknown
73422;BME280;61637;47.760;-122.022;2022-10-18T03:02:00;101930.339;;;13.5;unknown
73422;BME280;61637;47.760;-122.022;2022-10-18T03:04:00;101930.339;;;13.4;unknown
73422;BME280;61637;47.760;-122.022;2022-10-18T03:06:00;101930.339;;;13.4;unknown
73422;BME280;61637;47.760;-122.022;2022-10-18T03:08:00;101930.339;;;13.4;unknown
73422;BME280;61637;47.760;-122.022;2022-10-18T03:10:00;101930.339;;;13.4;unknown
73422;BME280;61637;47.760;-122.022;2022-10-18T03:12:00;101930.339;;;13.3;unknown
73422;BME280;61637;47.760;-122.022;2022-10-18T03:14:00;101930.339;;;13.3;unknown
73422;BME280;61637;47.760;-122.022;2022-10-18T03:16:00;101930.339;;;13.3;unknown
73422;BME280;61637;47.760;-122.022;2022-10-18T03:18:00;101930.339;;;13.2;unknown
73422;BME280;61637;47.760;-122.022;2022-10-18T03:20:00;101930.339;;;13.2;unknown
73422;BME280;61637;47.760;-122.022;2022-10-18T03:22:00;101930.339;;;13.2;unknown
73422;BME280;61637;47.760;-122.022;2022-10-18T03:24:00;101930.339;;;13.2;unknown
73422;BME280;61637;47.760;-122.022;2022-10-18T03:26:00;101930.339;;;13.2;unknown
73422;BME280;61637;47.760;-122.022;2022-10-18T03:28:00;101930.339;;;13.1;unknown
73422;BME280;61637;47.760;-122.022;2022-10-18T03:30:00;101930.339;;;13.1;unknown
73422;BME280;61637;47.760;-122.022;2022-10-18T03:32:00;101930.339;;;13.1;unknown
73422;BME280;61637;47.760;-122.022;2022-10-18T03:34:00;101930.339;;;13.1;unknown
73422;BME280;61637;47.760;-122.022;2022-10-18T03:36:00;102268.97799999999;;;13.0;unknown
73422;BME280;61637;47.760;-122.022;2022-10-18T03:38:00;102268.97799999999;;;13.0;unknown
73422;BME280;61637;47.760;-122.022;2022-10-18T03:40:00;102268.97799999999;;;12.9;unknown
73422;BME280;61637;47.760;-122.022;2022-10-18T03:42:00;102268.97799999999;;;12.9;unknown
73422;BME280;61637;47.760;-122.022;2022-10-18T03:44:00;101930.339;;;12.9;unknown
73422;BME280;61637;47.760;-122.022;2022-10-18T03:46:00;102268.97799999999;;;12.9;unknown
73422;BME280;61637;47.760;-122.022;2022-10-18T03:48:00;101930.339;;;12.8;unknown
73422;BME280;61637;47.760;-122.022;2022-10-18T03:50:00;101930.339;;;12.8;unknown
73422;BME280;61637;47.760;-122.022;2022-10-18T03:52:00;101930.339;;;12.8;unknown
73422;BME280;61637;47.760;-122.022;2022-10-18T03:54:00;101930.339;;;12.8;unknown
73422;BME280;61637;47.760;-122.022;2022-10-18T03:56:00;102268.97799999999;;;12.8;unknown
73422;BME280;61637;47.760;-122.022;2022-10-18T03:58:00;101930.339;;;12.8;unknown
73422;BME280;61637;47.760;-122.022;2022-10-18T04:00:00;102268.97799999999;;;12.8;unknown
73422;BME280;61637;47.760;-122.022;2022-10-18T04:02:00;102268.97799999999;;;12.8;unknown
73422;BME280;61637;47.760;-122.022;2022-10-18T04:04:00;102268.97799999999;;;12.8;unknown
73422;BME280;61637;47.760;-122.022;2022-10-18T04:06:00;102268.97799999999;;;12.7;unknown
73422;BME280;61637;47.760;-122.022;2022-10-18T04:08:00;102268.97799999999;;;12.8;unknown
73422;BME280;61637;47.760;-122.022;2022-10-18T04:10:00;102268.97799999999;;;12.8;unknown
73422;BME280;61637;47.760;-122.022;2022-10-18T04:12:00;102268.97799999999;;;12.7;unknown
73422;BME280;61637;47.760;-122.022;2022-10-18T04:14:00;102268.97799999999;;;12.8;unknown
73422;BME280;61637;47.760;-122.022;2022-10-18T04:16:00;102268.97799999999;;;12.8;unknown
73422;BME280;61637;47.760;-122.022;2022-10-18T04:18:00;102268.97799999999;;;12.7;unknown
73422;BME280;61637;47.760;-122.022;2022-10-18T04:20:00;102268.97799999999;;;12.8;unknown
73422;BME280;61637;47.760;-122.022;2022-10-18T04:22:00;102268.97799999999;;;12.8;unknown
73422;BME280;61637;47.760;-122.022;2022-10-18T04:24:00;102268.97799999999;;;12.8;unknown
73422;BME280;61637;47.760;-122.022;2022-10-18T04:26:00;102268.97799999999;;;12.8;unknown
73422;BME280;61637;47.760;-122.022;2022-10-18T04:28:00;102268.97799999999;;;12.8;unknown
73422;BME280;61637;47.760;-122.022;2022-10-18T04:30:00;102268.97799999999;;;12.8;unknown
73422;BME280;61637;47.760;-122.022;2022-10-18T04:32:00;102268.97799999999;;;12.8;unknown
73422;BME280;61637;47.760;-122.022;2022-10-18T04:34:00;102268.97799999999;;;12.7;unknown
73422;BME280;61637;47.760;-122.022;2022-10-18T04:36:00;102268.97799999999;;;12.7;unknown
73422;BME280;61637;47.760;-122.022;2022-10-18T04:38:00;102268.97799999999;;;12.7;unknown
73422;BME280;61637;47.760;-122.022;2022-10-18T04:40:00;102268.97799999999;;;12.7;unknown
73422;BME280;61637;47.760;-122.022;2022-10-18T04:42:00;102268.97799999999;;;12.7;unknown
73422;BME280;61637;47.760;-122.022;2022-10-18T04:44:00;102268.97799999999;;;12.7;unknown
73422;BME280;61637;47.760;-122.022;2022-10-18T04:46:00;102268.97799999999;;;12.7;unknown
73422;BME280;61637;47.760;-122.022;2022-10-18T04:48:00;102268.97799999999;;;12.7;unknown
73422;BME280;61637;47.760;-122.022;2022-10-18T04:50:00;102268.97799999999;;;12.6;unknown
73422;BME280;61637;47.760;-122.022;2022-10-18T04:52:00;102268.97799999999;;;12.6;unknown
73422;BME280;61637;47.760;-122.022;2022-10-18T04:54:00;102268.97799999999;;;12.6;unknown
73422;BME280;61637;47.760;-122.022;2022-10-18T04:56:00;102268.97799999999;;;12.6;unknown
73422;BME280;61637;47.760;-122.022;2022-10-18T04:58:00;102268.97799999999;;;12.5;unknown
73422;BME280;61637;47.760;-122.022;2022-10-18T05:00:00;102268.97799999999;;;12.5;unknown
73422;BME280;61637;47.760;-122.022;2022-10-18T05:02:00;102268.97799999999;;;12.5;unknown
73422;BME280;61637;47.760;-122.022;2022-10-18T05:04:00;102268.97799999999;;;12.5;unknown
73422;BME280;61637;47.760;-122.022;2022-10-18T05:06:00;102268.97799999999;;;12.4;unknown
73422;BME280;61637;47.760;-122.022;2022-10-18T05:08:00;102268.97799999999;;;12.4;unknown
73422;BME280;61637;47.760;-122.022;2022-10-18T05:10:00;102268.97799999999;;;12.4;unknown
73422;BME280;61637;47.760;-122.022;2022-10-18T05:12:00;102268.97799999999;;;12.4;unknown
73422;BME280;61637;47.760;-122.022;2022-10-18T05:14:00;102268.97799999999;;;12.3;unknown
73422;BME280;61637;47.760;-122.022;2022-10-18T05:16:00;102268.97799999999;;;12.3;unknown
73422;BME280;61637;47.760;-122.022;2022-10-18T05:18:00;102268.97799999999;;;12.3;unknown
73422;BME280;61637;47.760;-122.022;2022-10-18T05:20:00;102268.97799999999;;;12.2;unknown
73422;BME280;61637;47.760;-122.022;2022-10-18T05:22:00;102268.97799999999;;;12.2;unknown
73422;BME280;61637;47.760;-122.022;2022-10-18T05:24:00;102268.97799999999;;;12.2;unknown
73422;BME280;61637;47.760;-122.022;2022-10-18T05:26:01;102268.97799999999;;;12.1;unknown
73422;BME280;61637;47.760;-122.022;2022-10-18T05:28:00;102268.97799999999;;;12.1;unknown
73422;BME280;61637;47.760;-122.022;2022-10-18T05:30:00;102268.97799999999;;;12.0;unknown
73422;BME280;61637;47.760;-122.022;2022-10-18T05:32:00;102268.97799999999;;;12.0;unknown
73422;BME280;61637;47.760;-122.022;2022-10-18T05:34:00;102268.97799999999;;;11.9;unknown
73422;BME280;61637;47.760;-122.022;2022-10-18T05:36:00;102268.97799999999;;;11.9;unknown
73422;BME280;61637;47.760;-122.022;2022-10-18T05:38:01;102268.97799999999;;;11.9;unknown
73422;BME280;61637;47.760;-122.022;2022-10-18T05:40:00;102268.97799999999;;;11.8;unknown
73422;BME280;61637;47.760;-122.022;2022-10-18T05:42:00;102268.97799999999;;;11.8;unknown
73422;BME280;61637;47.760;-122.022;2022-10-18T05:44:02;102268.97799999999;;;11.8;unknown
73422;BME280;61637;47.760;-122.022;2022-10-18T05:46:00;102268.97799999999;;;11.8;unknown
73422;BME280;61637;47.760;-122.022;2022-10-18T05:48:00;102268.97799999999;;;11.8;unknown
73422;BME280;61637;47.760;-122.022;2022-10-18T05:50:00;102268.97799999999;;;11.7;unknown
73422;BME280;61637;47.760;-122.022;2022-10-18T05:52:00;102268.97799999999;;;11.7;unknown
73422;BME280;61637;47.760;-122.022;2022-10-18T05:54:00;102268.97799999999;;;11.7;unknown
73422;BME280;61637;47.760;-122.022;2022-10-18T05:56:00;102268.97799999999;;;11.7;unknown
73422;BME280;61637;47.760;-122.022;2022-10-18T05:58:00;102268.97799999999;;;11.7;unknown
73422;BME280;61637;47.760;-122.022;2022-10-18T06:00:00;102268.97799999999;;;11.6;unknown
73422;BME280;61637;47.760;-122.022;2022-10-18T06:02:00;102268.97799999999;;;11.6;unknown
73422;BME280;61637;47.760;-122.022;2022-10-18T06:04:00;102268.97799999999;;;11.6;unknown
73422;BME280;61637;47.760;-122.022;2022-10-18T06:06:00;102268.97799999999;;;11.6;unknown
73422;BME280;61637;47.760;-122.022;2022-10-18T06:08:00;102268.97799999999;;;11.6;unknown
73422;BME280;61637;47.760;-122.022;2022-10-18T06:10:00;102268.97799999999;;;11.6;unknown
73422;BME280;61637;47.760;-122.022;2022-10-18T06:12:00;102268.97799999999;;;11.5;unknown
73422;BME280;61637;47.760;-122.022;2022-10-18T06:14:00;102268.97799999999;;;11.6;unknown
73422;BME280;61637;47.760;-122.022;2022-10-18T06:16:00;102268.97799999999;;;11.5;unknown
73422;BME280;61637;47.760;-122.022;2022-10-18T06:18:00;102268.97799999999;;;11.6;unknown
73422;BME280;61637;47.760;-122.022;2022-10-18T06:20:00;102268.97799999999;;;11.6;unknown
73422;BME280;61637;47.760;-122.022;2022-10-18T06:22:00;102268.97799999999;;;11.5;unknown
73422;BME280;61637;47.760;-122.022;2022-10-18T06:24:00;102268.97799999999;;;11.5;unknown
73422;BME280;61637;47.760;-122.022;2022-10-18T06:26:01;102268.97799999999;;;11.5;unknown
73422;BME280;61637;47.760;-122.022;2022-10-18T06:28:00;102268.97799999999;;;11.5;unknown
73422;BME280;61637;47.760;-122.022;2022-10-18T06:30:00;102268.97799999999;;;11.5;unknown
73422;BME280;61637;47.760;-122.022;2022-10-18T06:32:00;102268.97799999999;;;11.5;unknown
73422;BME280;61637;47.760;-122.022;2022-10-18T06:34:00;102268.97799999999;;;11.5;unknown
73422;BME280;61637;47.760;-122.022;2022-10-18T06:36:01;102268.97799999999;;;11.5;unknown
73422;BME280;61637;47.760;-122.022;2022-10-18T06:38:00;102268.97799999999;;;11.5;unknown
73422;BME280;61637;47.760;-122.022;2022-10-18T06:40:00;102268.97799999999;;;11.5;unknown
73422;BME280;61637;47.760;-122.022;2022-10-18T06:42:00;102268.97799999999;;;11.4;unknown
73422;BME280;61637;47.760;-122.022;2022-10-18T06:44:00;102268.97799999999;;;11.4;unknown
73422;BME280;61637;47.760;-122.022;2022-10-18T06:46:01;102268.97799999999;;;11.4;unknown
73422;BME280;61637;47.760;-122.022;2022-10-18T06:48:00;102268.97799999999;;;11.4;unknown
73422;BME280;61637;47.760;-122.022;2022-10-18T06:50:00;102268.97799999999;;;11.4;unknown
73422;BME280;61637;47.760;-122.022;2022-10-18T06:52:00;102268.97799999999;;;11.3;unknown
73422;BME280;61637;47.760;-122.022;2022-10-18T06:54:00;102268.97799999999;;;11.3;unknown
73422;BME280;61637;47.760;-122.022;2022-10-18T06:56:01;102268.97799999999;;;11.3;unknown
73422;BME280;61637;47.760;-122.022;2022-10-18T06:58:00;102268.97799999999;;;11.2;unknown
73422;BME280;61637;47.760;-122.022;2022-10-18T07:00:01;102268.97799999999;;;11.2;unknown
73422;BME280;61637;47.760;-122.022;2022-10-18T07:02:00;102268.97799999999;;;11.1;unknown
73422;BME280;61637;47.760;-122.022;2022-10-18T07:04:00;102268.97799999999;;;11.1;unknown
73422;BME280;61637;47.760;-122.022;2022-10-18T07:06:00;102268.97799999999;;;11.1;unknown
73422;BME280;61637;47.760;-122.022;2022-10-18T07:08:00;102268.97799999999;;;11.1;unknown
73422;BME280;61637;47.760;-122.022;2022-10-18T07:10:00;102268.97799999999;;;11.0;unknown
73422;BME280;61637;47.760;-122.022;2022-10-18T07:12:00;102268.97799999999;;;11.0;unknown
73422;BME280;61637;47.760;-122.022;2022-10-18T07:14:00;102268.97799999999;;;10.9;unknown
73422;BME280;61637;47.760;-122.022;2022-10-18T07:16:01;102268.97799999999;;;10.9;unknown
73422;BME280;61637;47.760;-122.022;2022-10-18T07:18:00;102268.97799999999;;;10.9;unknown
73422;BME280;61637;47.760;-122.022;2022-10-18T07:20:00;102268.97799999999;;;10.9;unknown
73422;BME280;61637;47.760;-122.022;2022-10-18T07:22:00;102268.97799999999;;;10.9;unknown
73422;BME280;61637;47.760;-122.022;2022-10-18T07:24:00;102268.97799999999;;;10.9;unknown
73422;BME280;61637;47.760;-122.022;2022-10-18T07:26:00;102268.97799999999;;;10.9;unknown
73422;BME280;61637;47.760;-122.022;2022-10-18T07:28:00;102268.97799999999;;;10.9;unknown
73422;BME280;61637;47.760;-122.022;2022-10-18T07:30:00;102268.97799999999;;;10.9;unknown
73422;BME280;61637;47.760;-122.022;2022-10-18T07:32:00;102268.97799999999;;;10.9;unknown
73422;BME280;61637;47.760;-122.022;2022-10-18T07:34:02;102268.97799999999;;;10.9;unknown
73422;BME280;61637;47.760;-122.022;2022-10-18T07:36:00;102268.97799999999;;;10.9;unknown
73422;BME280;61637;47.760;-122.022;2022-10-18T07:38:00;102268.97799999999;;;10.8;unknown
73422;BME280;61637;47.760;-122.022;2022-10-18T07:40:00;102268.97799999999;;;10.8;unknown
73422;BME280;61637;47.760;-122.022;2022-10-18T07:42:00;102268.97799999999;;;10.8;unknown
73422;BME280;61637;47.760;-122.022;2022-10-18T07:44:00;102268.97799999999;;;10.9;unknown
73422;BME280;61637;47.760;-122.022;2022-10-18T07:46:01;102268.97799999999;;;10.8;unknown
73422;BME280;61637;47.760;-122.022;2022-10-18T07:48:00;102268.97799999999;;;10.8;unknown
73422;BME280;61637;47.760;-122.022;2022-10-18T07:50:00;102268.97799999999;;;10.9;unknown
73422;BME280;61637;47.760;-122.022;2022-10-18T07:52:00;102268.97799999999;;;10.9;unknown
73422;BME280;61637;47.760;-122.022;2022-10-18T07:54:00;102268.97799999999;;;10.9;unknown
73422;BME280;61637;47.760;-122.022;2022-10-18T07:56:01;102268.97799999999;;;10.9;unknown
73422;BME280;61637;47.760;-122.022;2022-10-18T07:58:00;102268.97799999999;;;10.9;unknown
73422;BME280;61637;47.760;-122.022;2022-10-18T08:00:00;102268.97799999999;;;10.9;unknown
73422;BME280;61637;47.760;-122.022;2022-10-18T08:02:00;102268.97799999999;;;10.9;unknown
73422;BME280;61637;47.760;-122.022;2022-10-18T08:04:00;102268.97799999999;;;10.9;unknown
73422;BME280;61637;47.760;-122.022;2022-10-18T08:06:00;102268.97799999999;;;10.9;unknown
73422;BME280;61637;47.760;-122.022;2022-10-18T08:08:00;102268.97799999999;;;10.9;unknown
73422;BME280;61637;47.760;-122.022;2022-10-18T08:10:00;102268.97799999999;;;10.9;unknown
73422;BME280;61637;47.760;-122.022;2022-10-18T08:12:00;102268.97799999999;;;10.9;unknown
73422;BME280;61637;47.760;-122.022;2022-10-18T08:14:00;102268.97799999999;;;10.9;unknown
73422;BME280;61637;47.760;-122.022;2022-10-18T08:16:00;102268.97799999999;;;10.9;unknown
73422;BME280;61637;47.760;-122.022;2022-10-18T08:18:00;102268.97799999999;;;10.9;unknown
73422;BME280;61637;47.760;-122.022;2022-10-18T08:20:00;102268.97799999999;;;10.9;unknown
73422;BME280;61637;47.760;-122.022;2022-10-18T08:22:00;102268.97799999999;;;10.9;unknown
73422;BME280;61637;47.760;-122.022;2022-10-18T08:24:00;102268.97799999999;;;10.9;unknown
73422;BME280;61637;47.760;-122.022;2022-10-18T08:26:01;102268.97799999999;;;10.9;unknown
73422;BME280;61637;47.760;-122.022;2022-10-18T08:28:00;102268.97799999999;;;10.9;unknown
73422;BME280;61637;47.760;-122.022;2022-10-18T08:30:00;102268.97799999999;;;10.9;unknown
73422;BME280;61637;47.760;-122.022;2022-10-18T08:32:00;102268.97799999999;;;10.9;unknown
73422;BME280;61637;47.760;-122.022;2022-10-18T08:34:00;102268.97799999999;;;10.9;unknown
73422;BME280;61637;47.760;-122.022;2022-10-18T08:36:01;102268.97799999999;;;10.9;unknown
73422;BME280;61637;47.760;-122.022;2022-10-18T08:38:00;102268.97799999999;;;10.9;unknown
73422;BME280;61637;47.760;-122.022;2022-10-18T08:40:00;102268.97799999999;;;10.9;unknown
73422;BME280;61637;47.760;-122.022;2022-10-18T08:42:07;102268.97799999999;;;11.0;unknown
73422;BME280;61637;47.760;-122.022;2022-10-18T08:44:04;102268.97799999999;;;11.0;unknown
73422;BME280;61637;47.760;-122.022;2022-10-18T08:46:00;102268.97799999999;;;11.0;unknown
73422;BME280;61637;47.760;-122.022;2022-10-18T08:48:00;102268.97799999999;;;11.0;unknown
73422;BME280;61637;47.760;-122.022;2022-10-18T08:50:01;102268.97799999999;;;11.0;unknown
73422;BME280;61637;47.760;-122.022;2022-10-18T08:52:00;102268.97799999999;;;11.0;unknown
73422;BME280;61637;47.760;-122.022;2022-10-18T08:54:02;102268.97799999999;;;11.0;unknown
73422;BME280;61637;47.760;-122.022;2022-10-18T08:56:02;102268.97799999999;;;10.9;unknown
73422;BME280;61637;47.760;-122.022;2022-10-18T08:58:00;102268.97799999999;;;10.9;unknown
73422;BME280;61637;47.760;-122.022;2022-10-18T09:00:00;102268.97799999999;;;10.9;unknown
73422;BME280;61637;47.760;-122.022;2022-10-18T09:02:03;102268.97799999999;;;10.9;unknown
73422;BME280;61637;47.760;-122.022;2022-10-18T09:04:05;102268.97799999999;;;10.9;unknown
73422;BME280;61637;47.760;-122.022;2022-10-18T09:06:02;102268.97799999999;;;10.8;unknown
73422;BME280;61637;47.760;-122.022;2022-10-18T09:08:03;102268.97799999999;;;10.8;unknown
73422;BME280;61637;47.760;-122.022;2022-10-18T09:10:02;102268.97799999999;;;10.8;unknown
73422;BME280;61637;47.760;-122.022;2022-10-18T09:12:04;102268.97799999999;;;10.8;unknown
73422;BME280;61637;47.760;-122.022;2022-10-18T09:14:04;102268.97799999999;;;10.8;unknown
73422;BME280;61637;47.760;-122.022;2022-10-18T09:16:00;102268.97799999999;;;10.7;unknown